Tiempo atmosférico en la estación meteorológica de Alburquerque, Badajoz (283 m.)



Fecha
DESCASC
Temp. máxima en grados centígrados (hora)
DESCASC
Temp. mínima en grados centígrados (hora)
DESCASC
Temp. media en grados centígrados
DESCASC
Racha de viento máxima en m/sg (hora)
DESCASC
Velocidad máxima media en intervalos de 10 minutos(hora)
DESCASC
Precipitaciones diarias en mm
DESCASC
Precipitaciones de 00:00 a 06:00 en mm
DESCASC
Precipitaciones de 06:00 a 12:00 en mm
DESCASC
Precipitaciones de 12:00 a 18:00 en mm
DESCASC
Precipitaciones de 18:00 a 24:00 en mm
DESCASC
05-04-2020 18.2 (14:10) 11.1 (08:10) 14.7 10.28 (15:30) 6.11 (15:30) 6.6 0 0 0 6.6
04-04-2020 18.5 (16:30) 10.6 (08:10) 14.6 10 (13:10) 5.83 (13:10) 0 0 0 0 0
03-04-2020 19.5 (18:50) 6.3 (08:10) 12.9 6.39 (14:30) 3.89 (13:40) 0 0 0 0 0
02-04-2020 18.4 (17:50) 6.7 (00:00) 12.5 7.22 (05:40) 4.17 (05:40) 2.4 1.4 1 0 0
01-04-2020 12.6 (15:50) 1.3 (00:00) 7 10 (16:30) 5.83 (14:30) -- -- -- 0.6 10.6
31-03-2020 12.5 (18:20) 3.9 (00:00) 8.2 10.28 (03:20) 6.11 (01:10) -- -- -- -- --
30-03-2020 12.3 (14:10) 4.8 (00:00) 8.6 10.83 (21:00) 6.39 (23:20) -- 0 0 -- --
29-03-2020 18.8 (16:10) 4.6 (00:00) 11.7 6.11 (12:30) 2.78 (14:30) 0 0 0 0 0
28-03-2020 17 (17:00) 1.8 (00:00) 9.4 7.22 (11:50) 4.44 (11:50) 0 0 0 0 0
27-03-2020 15.6 (17:10) 2.9 (00:00) 9.3 7.5 (10:40) 4.44 (13:30) 0 0 0 0 0
26-03-2020 20 (14:50) 5 (00:00) 12.5 9.44 (18:00) 5.28 (15:50) 0 0 0 0 0
25-03-2020 20.2 (17:20) 5.1 (00:00) 12.7 5.83 (16:30) 3.06 (16:30) 0 0 0 0 0
24-03-2020 18 (14:40) 10 (00:00) 14 11.11 (14:50) 6.11 (11:10) 0 0 0 0 0
23-03-2020 17.1 (17:40) 6.1 (00:00) 11.6 7.22 (22:50) 4.72 (15:00) 0 0 0 0 0
22-03-2020 16.6 (17:40) 6.8 (08:10) 11.7 6.11 (14:50) 3.06 (14:50) 0 0 0 0 0
21-03-2020 13.8 (16:50) 8.2 (00:00) 11 9.17 (15:10) 5.56 (15:10) 1.6 0.6 0 1 0
20-03-2020 13.4 (13:10) 9.9 (00:00) 11.6 6.39 (17:10) 3.89 (17:00) 15.2 0.2 3.8 1.8 9.4
19-03-2020 21 (16:20) 8.4 (00:00) 14.7 7.22 (20:20) 4.17 (15:40) 0 0 0 0 0
18-03-2020 21.4 (16:10) 11.7 (00:00) 16.5 10.28 (06:00) 6.11 (01:00) 0 0 0 0 0
17-03-2020 17.4 (17:10) 5.6 (00:00) 11.5 11.11 (13:20) 7.22 (13:20) 0 0 0 0 0
16-03-2020 13 (12:20) 2 (00:00) 7.5 13.61 (14:10) 7.22 (12:30) 4.4 0 0 0.6 3.8
15-03-2020 18.8 (14:30) 7.1 (00:00) 12.9 10.83 (15:20) 5.28 (15:10) 0 0 0 0 0
14-03-2020 23.2 (17:40) 6.3 (00:00) 14.8 5 (14:30) 2.78 (17:50) 0 0 0 0 0
13-03-2020 18.4 (18:10) 8.2 (03:50) 13.3 5.83 (14:10) 3.33 (14:50) 0 0 0 0 0
12-03-2020 23.6 (14:50) 7.8 (00:00) 15.7 5.56 (17:00) 3.06 (16:30) 0 0 0 0 0
11-03-2020 25.4 (15:10) 6.5 (00:00) 15.9 4.44 (17:40) 2.5 (15:50) 0 0 0 0 0
10-03-2020 24.3 (16:50) 5.5 (00:00) 14.9 4.72 (01:50) 3.06 (00:30) 0 0 0 0 0
09-03-2020 20.4 (16:50) 3.5 (00:00) 11.9 8.33 (15:10) 4.44 (15:20) 0 0 0 0 0
08-03-2020 17 (15:50) 0.3 (00:00) 8.7 7.22 (16:10) 3.61 (18:00) 0 0 0 0 0

Gráficas

Temp. máximas Temp. mínimas Temp. medias Precipitaciones Rachas de viento máximas Velocidades máximas media en intervalos de 10 minutos

Datos horarios

Fecha y hora oficial Temperatura (ºC) Velocidad del viento (km/h) Dirección del viento Racha (km/h) Dirección de racha Precipitación (mm) Presión (hPa) Tendencia (hPa) Humedad (%)
2020-04-06 23:00:00 14 11 Este 18 Este 6.8 -- -- 98
2020-04-06 22:00:00 14.2 9 Este 24 Sudeste 3.8 -- -- 98
2020-04-06 21:00:00 14.2 8 Este 16 Este 4.8 -- -- 96
2020-04-06 20:00:00 14.3 10 Sudeste 14 Este 3.6 -- -- 96
2020-04-06 19:00:00 15.1 0 Calma 10 Este 2 -- -- 94
2020-04-06 18:00:00 15.9 4 Sudoeste 13 Sur 1.6 -- -- 91
2020-04-06 17:00:00 18 3 Noroeste 12 Noroeste 0 -- -- 81
2020-04-06 16:00:00 17.8 8 Oeste 22 Sudoeste 0 -- -- 82
2020-04-06 15:00:00 17.3 8 Sur 18 Sur 0 -- -- 83
2020-04-06 14:00:00 16.5 10 Sur 19 Sur 0 -- -- 84
2020-04-06 13:00:00 15.3 6 Sudoeste 14 Sur 0 -- -- 89
2020-04-06 12:00:00 14.4 8 Sur 13 Sur 0 -- -- 91
2020-04-06 11:00:00 14.1 5 Sur 8 Sur 0 -- -- 95
2020-04-06 10:00:00 13.3 0 Calma 4 Norte 0 -- -- 99
2020-04-06 09:00:00 12.5 0 Calma 6 Sur 0 -- -- 100
2020-04-06 08:00:00 12.1 2 Sur 5 Este 0 -- -- 100
2020-04-06 07:00:00 11.9 0 Calma 5 Este 0 -- -- 100
2020-04-06 06:00:00 11.3 3 Este 5 Este 0 -- -- 100
2020-04-06 05:00:00 10.1 0 Calma 5 Sudoeste 0 -- -- 99
2020-04-06 04:00:00 10.6 0 Calma 6 Oeste 0 -- -- 97
2020-04-06 03:00:00 12.8 3 Oeste 6 Sudoeste 0 -- -- 96
2020-04-06 02:00:00 14 5 Oeste 15 Oeste 0 -- -- 96
2020-04-06 01:00:00 14.3 5 Oeste 13 Noroeste 0 -- -- 97
2020-04-06 00:00:00 14.6 4 Oeste 16 Sudoeste 0 -- -- 97
2020-04-05 23:00:00 14.8 9 Sudoeste 25 Sur 0.2 -- -- 98
2020-04-05 22:00:00 14.8 12 Sur 31 Sudoeste 4 -- -- 97
2020-04-05 21:00:00 15.1 13 Sudoeste 27 Sur 0.2 -- -- 95
2020-04-05 20:00:00 15.2 11 Sudoeste 24 Sur 2.2 -- -- 95
2020-04-05 19:00:00 16 15 Sudoeste 32 Sudoeste 0 -- -- 87
2020-04-05 18:00:00 16.9 20 Sudoeste 36 Sudoeste 0 -- -- 81
2020-04-05 17:00:00 17.8 18 Sudoeste 37 Sur 0 -- -- 76
2020-04-05 16:00:00 17.9 16 Sudoeste 37 Sur 0 -- -- 76
2020-04-05 15:00:00 18 18 Sudoeste 36 Sudoeste 0 -- -- 73
2020-04-05 14:00:00 17.2 13 Sudoeste 27 Sudoeste 0 -- -- 76
2020-04-05 13:00:00 16.5 17 Sur 32 Sur 0 -- -- 75
2020-04-05 12:00:00 15.9 20 Sur 30 Sur 0 -- -- 74
2020-04-05 11:00:00 13.9 15 Sur 28 Sudeste 0 -- -- 81
2020-04-05 10:00:00 12.8 13 Sur 23 Sudeste 0 -- -- 81
2020-04-05 09:00:00 11.8 12 Sudeste 24 Sudeste 0 -- -- 82
2020-04-05 08:00:00 11.2 13 Sudeste 22 Sudeste 0 -- -- 83
2020-04-05 07:00:00 11.5 11 Sudeste 22 Sudeste 0 -- -- 84
2020-04-05 06:00:00 11.3 8 Sur 17 Sudeste 0 -- -- 86
2020-04-05 05:00:00 11.6 12 Sudeste 24 Sudeste 0 -- -- 86
2020-04-05 04:00:00 11.7 9 Sudeste 14 Sudeste 0 -- -- 88
2020-04-05 03:00:00 11.4 8 Sur 17 Sur 0 -- -- 89
2020-04-05 02:00:00 12.1 9 Sur 16 Sudeste 0 -- -- 86
2020-04-05 01:00:00 13 11 Sur 22 Sudeste 0 -- -- 82
2020-04-05 00:00:00 13.7 10 Sudeste 18 Sudeste 0 -- -- 77
2020-04-04 23:00:00 13.7 8 Sudeste 14 Sudeste 0 -- -- 81
2020-04-04 22:00:00 13.3 6 Sudeste 12 Sudeste 0 -- -- 84
2020-04-04 21:00:00 13.6 4 Este 21 Sur 0 -- -- 87
2020-04-04 20:00:00 14.5 11 Sur 18 Sudoeste 0 -- -- 76
2020-04-04 19:00:00 15.7 12 Sudoeste 23 Sudoeste 0 -- -- 70
2020-04-04 18:00:00 16.9 14 Sudoeste 27 Sudoeste 0 -- -- 62
2020-04-04 17:00:00 18 13 Sudoeste 27 Sur 0 -- -- 58
2020-04-04 16:00:00 17.4 13 Sur 26 Sudeste 0 -- -- 61
2020-04-04 15:00:00 16.8 18 Sur 30 Sudeste 0 -- -- 62
2020-04-04 14:00:00 15.8 19 Sur 36 Sudeste 0 -- -- 67
2020-04-04 13:00:00 15.5 17 Sur 34 Sudeste 0 -- -- 70
2020-04-04 12:00:00 14.5 21 Sur 34 Sudeste 0 -- -- 70
2020-04-04 11:00:00 13.7 18 Sudeste 32 Sur 0 -- -- 68
2020-04-04 10:00:00 14.4 13 Sudeste 27 Sudeste 0 -- -- 68
2020-04-04 09:00:00 11.4 13 Sudeste 21 Sudeste 0 -- -- 78
2020-04-04 08:00:00 10.7 12 Sudeste 24 Sudeste 0 -- -- 78
2020-04-04 07:00:00 11.1 9 Sudeste 23 Sudeste 0 -- -- 78
2020-04-04 06:00:00 11.9 14 Sudeste 24 Sudeste 0 -- -- 74
2020-04-04 05:00:00 11.5 9 Sudeste 15 Sudeste 0 -- -- 77
2020-04-04 04:00:00 13.1 10 Sudeste 20 Sudeste 0 -- -- 72
2020-04-04 03:00:00 12.9 10 Sudeste 15 Sudeste 0 -- -- 73
2020-04-04 02:00:00 13.5 9 Sudeste 15 Sudeste 0 -- -- 71
2020-04-04 01:00:00 11.6 2 Sur 8 Oeste 0 -- -- 85
2020-04-04 00:00:00 12 0 Calma 9 Este 0 -- -- 85
2020-04-03 23:00:00 13.5 3 Este 13 Este 0 -- -- 76
2020-04-03 22:00:00 12.7 3 Este 6 Nordeste 0 -- -- 80
2020-04-03 21:00:00 15 5 Nordeste 8 Sudeste 0 -- -- 75
2020-04-03 20:00:00 18.5 6 Sudeste 13 Sudeste 0 -- -- 55
2020-04-03 19:00:00 19.5 7 Sur 18 Sur 0 -- -- 49
2020-04-03 18:00:00 19.4 8 Sur 20 Sur 0 -- -- 51
2020-04-03 17:00:00 19.4 10 Sur 20 Sur 0 -- -- 57
2020-04-03 16:00:00 18.8 12 Sur 22 Sudeste 0 -- -- 61
2020-04-03 15:00:00 18 12 Sur 23 Sur 0 -- -- 60
2020-04-03 14:00:00 17.2 11 Sur 20 Sur 0 -- -- 73
2020-04-03 13:00:00 16.9 9 Sur 21 Sudeste 0 -- -- 71
2020-04-03 12:00:00 15.6 11 Sudeste 18 Este 0 -- -- 69
2020-04-03 11:00:00 13.9 7 Sudeste 13 Este 0 -- -- 74
2020-04-03 10:00:00 12 6 Sudeste 10 Sudeste 0 -- -- 81
2020-04-03 09:00:00 7.2 3 Noroeste 7 Este 0 -- -- 94
2020-04-03 08:00:00 6.4 0 Calma 9 Sudoeste 0 -- -- 91
2020-04-03 07:00:00 8.2 7 Este 15 Este 0 -- -- 86
2020-04-03 06:00:00 7.4 3 Noroeste 12 Norte 0 -- -- 93
2020-04-03 05:00:00 6.5 3 Nordeste 8 Oeste 0 -- -- 97
2020-04-03 04:00:00 6.4 3 Sudeste 6 Sur 0 -- -- 96
2020-04-03 03:00:00 7.2 3 Sur 7 Sudeste 0 -- -- 93
2020-04-03 02:00:00 9.8 7 Noroeste 14 Noroeste 0 -- -- 87
2020-04-03 01:00:00 8.9 6 Norte 9 Norte 0 -- -- 95
2020-04-03 00:00:00 8.1 4 Norte 5 Noroeste 0 -- -- 94
2020-04-02 23:00:00 9.1 2 Norte 6 Nordeste 0 -- -- 90
2020-04-02 22:00:00 10.9 0 Calma 5 Oeste 0 -- -- 84
2020-04-02 21:00:00 15.2 2 Norte 15 Norte 0 -- -- 67
2020-04-02 20:00:00 18 6 Norte 19 Noroeste 0 -- -- 54
2020-04-02 19:00:00 17.4 7 Norte 16 Norte 0 -- -- 55
2020-04-02 18:00:00 17.6 10 Norte 22 Nordeste 0 -- -- 50
2020-04-02 17:00:00 18 9 Nordeste 23 Nordeste 0 -- -- 50
2020-04-02 16:00:00 16.9 6 Norte 20 Este 0 -- -- 55
2020-04-02 15:00:00 16.6 4 Norte 14 Nordeste 0 -- -- 59
2020-04-02 14:00:00 14.9 5 Norte 19 Norte 0 -- -- 67
2020-04-02 13:00:00 14.2 11 Nordeste 17 Nordeste 0 -- -- 69
2020-04-02 12:00:00 12.7 6 Nordeste 14 Este 0 -- -- 81
2020-04-02 11:00:00 11.1 3 Sudeste 12 Nordeste 0 -- -- 85
2020-04-02 10:00:00 8.7 2 Norte 14 Norte 0 -- -- 96
2020-04-02 09:00:00 6.9 2 Sudoeste 9 Noroeste 0 -- -- 97
2020-04-02 08:00:00 6.9 4 Noroeste 13 Nordeste 0.6 -- -- 96
2020-04-02 07:00:00 6.9 8 Nordeste 19 Nordeste 0.4 -- -- 95
2020-04-02 06:00:00 7 13 Nordeste 26 Nordeste 1 -- -- 94
2020-04-02 05:00:00 7.1 4 Oeste 9 Norte 0 -- -- 97
2020-04-02 04:00:00 7 3 Norte 9 Norte 0 -- -- 98
2020-04-02 03:00:00 6.9 4 Norte 8 Noroeste 0 -- -- 95
2020-04-02 02:00:00 7.3 3 Nordeste 8 Este 0 -- -- 96
2020-04-02 01:00:00 7.2 4 Oeste 8 Este 0.4 -- -- 95
2020-04-02 00:00:00 7.5 4 Este 11 Este 0.4 -- -- 96
2020-04-01 23:00:00 7.4 5 Este 12 Sudeste 5 -- -- 95
2020-04-01 22:00:00 7.5 4 Noroeste 29 Oeste 4.4 -- -- 94
2020-04-01 21:00:00 9.7 7 Sudeste 20 Sudeste 0 -- -- 92
2020-04-01 20:00:00 9.8 9 Este 17 Sudeste 0 -- -- 91
2020-04-01 19:00:00 10.3 6 Sudeste 17 Sudeste 0.8 -- -- 90
2020-04-01 18:00:00 10.8 12 Sudeste 24 Sur 0 -- -- 80
2020-04-01 17:00:00 11 14 Sur 36 Sudoeste 0.6 -- -- 84
2020-04-01 16:00:00 12.4 13 Sur 30 Sudeste 0 -- -- 69
2020-04-01 15:00:00 12.3 15 Sur 32 Sur 0 -- -- 75
2020-04-01 14:00:00 11.3 12 Sur 26 Sudeste 0 -- -- 72
2020-04-01 13:00:00 11 12 Sudeste 22 Sudeste 0 -- -- 77
2020-04-01 12:00:00 8 10 Sudeste -- -- -- -- -- 98
2020-04-01 11:00:00 -- 0 Calma 8 Noroeste -- -- -- --
2020-04-01 10:00:00 4.3 4 Noroeste 8 Noroeste -- -- -- 100
2020-04-01 09:00:00 3.8 4 Noroeste 7 Oeste -- -- -- 100
2020-04-01 08:00:00 2.4 0 Calma 4 Noroeste -- -- -- 100
2020-04-01 07:00:00 2.9 0 Calma 7 Noroeste -- -- -- 100
2020-04-01 06:00:00 1.5 3 Norte 7 Noroeste -- -- -- 99
2020-04-01 05:00:00 1.9 4 Sudeste 6 Sudeste -- -- -- 98
2020-04-01 04:00:00 1.8 0 Calma 4 Nordeste -- -- -- 98
2020-04-01 03:00:00 3 0 Calma 7 Sudeste -- -- -- 97
2020-04-01 02:00:00 4.3 2 Noroeste 9 Noroeste -- -- -- 98
2020-04-01 01:00:00 3 3 Este 6 Nordeste -- -- -- 97
2020-04-01 00:00:00 3.9 2 Este 5 Este -- -- -- 96
2020-03-31 23:00:00 5.3 0 Calma 5 Oeste -- -- -- 94
2020-03-31 22:00:00 6.5 3 Oeste 12 Noroeste -- -- -- 89
2020-03-31 21:00:00 8.2 7 Oeste 30 Oeste -- -- -- 86
2020-03-31 20:00:00 9.1 15 Oeste 31 Noroeste -- -- -- 89
2020-03-31 19:00:00 11.4 13 Oeste 26 Sudoeste -- -- -- 83
2020-03-31 18:00:00 11.7 11 Oeste 25 Oeste -- -- -- 88
2020-03-31 17:00:00 11.8 6 Oeste 14 Noroeste -- -- -- 91
2020-03-31 16:00:00 11.6 5 Oeste 10 Noroeste -- -- -- 89
2020-03-31 15:00:00 11 0 Calma 9 Noroeste -- -- -- 93
2020-03-31 14:00:00 9.6 3 Este 8 Sudeste -- -- -- 94
2020-03-31 13:00:00 8.2 3 Norte 11 Nordeste -- -- -- 98
2020-03-31 12:00:00 7.1 7 Nordeste 13 Norte 0 -- -- 98
2020-03-31 11:00:00 6 8 Norte 16 Norte 0 -- -- 98
2020-03-31 10:00:00 5.5 9 Nordeste 18 Norte 0 -- -- 97
2020-03-31 09:00:00 5.4 5 Norte 21 Este 0 -- -- 97
2020-03-31 08:00:00 5.2 8 Nordeste 19 Nordeste 0 -- -- 96
2020-03-31 07:00:00 5.2 9 Nordeste 20 Nordeste 0.4 -- -- 97
2020-03-31 06:00:00 5.2 6 Norte 25 Nordeste 0 -- -- 96
2020-03-31 05:00:00 5.5 11 Nordeste 31 Este 0 -- -- 94
2020-03-31 04:00:00 5.7 19 Este 37 Nordeste 0 -- -- 93
2020-03-31 03:00:00 6.1 18 Este 32 Nordeste 0 -- -- 93
2020-03-31 02:00:00 6.4 18 Este 33 Este 0 -- -- 92
2020-03-31 01:00:00 6.5 19 Este 32 Nordeste 0 -- -- 94
2020-03-31 00:00:00 6.6 19 Nordeste 36 Este 0 -- -- 95
2020-03-30 23:00:00 7 21 Este 35 Este 0 -- -- 95
2020-03-30 22:00:00 7.7 17 Este 38 Este 0.2 -- -- 94
2020-03-30 21:00:00 8.7 21 Nordeste 39 Este 0.2 -- -- 91
2020-03-30 20:00:00 9.4 15 Nordeste 32 Nordeste 0 -- -- 83
2020-03-30 19:00:00 10.3 16 Nordeste 33 Nordeste 0 -- -- 79
2020-03-30 18:00:00 10.4 19 Nordeste 31 Nordeste 0 -- -- 82
2020-03-30 17:00:00 10.6 13 Nordeste 22 Nordeste 0.2 -- -- 87
2020-03-30 16:00:00 10.4 14 Nordeste 25 Nordeste 0.6 -- -- 90
2020-03-30 15:00:00 11.6 13 Nordeste 21 Nordeste 0 -- -- 79
2020-03-30 14:00:00 12.2 11 Nordeste 21 Nordeste 0.4 -- -- 83
2020-03-30 13:00:00 11 11 Nordeste 21 Nordeste 0 -- -- 81
2020-03-30 12:00:00 11.1 8 Nordeste 14 Nordeste 0 -- -- 86
2020-03-30 11:00:00 9.3 3 Sudoeste 9 Sudoeste 0 -- -- 97
2020-03-30 10:00:00 8.1 4 Noroeste 7 Noroeste 0 -- -- 98
2020-03-30 09:00:00 7 3 Norte 6 Norte 0 -- -- 99
2020-03-30 08:00:00 5.5 0 Calma 6 Nordeste 0 -- -- 99
2020-03-30 07:00:00 5 5 Nordeste 6 Nordeste 0 -- -- 98
2020-03-30 06:00:00 5.8 0 Calma 5 Noroeste 0 -- -- 97
2020-03-30 05:00:00 6.7 0 Calma 8 Nordeste 0 -- -- 97
2020-03-30 04:00:00 6.3 0 Calma 5 Sudeste 0 -- -- 97
2020-03-30 03:00:00 6.5 3 Sudeste 5 Sudeste 0 -- -- 96
2020-03-30 02:00:00 7 0 Calma 6 Este 0 -- -- 94
2020-03-30 01:00:00 7.9 2 Noroeste 5 Noroeste 0 -- -- 92
2020-03-30 00:00:00 9.2 4 Nordeste 6 Nordeste 0 -- -- 90
2020-03-29 23:00:00 10.4 4 Nordeste -- -- 0 -- -- 87
2020-03-29 22:00:00 12.4 0 Calma 5 Nordeste 0 -- -- 82
2020-03-29 21:00:00 14.8 0 Calma 8 Noroeste 0 -- -- 74
2020-03-29 20:00:00 17.2 4 Oeste 10 Oeste 0 -- -- 59
2020-03-29 19:00:00 17.9 6 Oeste 14 Oeste 0 -- -- 53
2020-03-29 18:00:00 18.4 7 Sudoeste 15 Sudoeste 0 -- -- 52
2020-03-29 17:00:00 18.5 5 Sudoeste 15 Sur 0 -- -- 53
2020-03-29 16:00:00 18.6 7 Oeste 16 Noroeste 0 -- -- 57
2020-03-29 15:00:00 17.9 9 Sudoeste 18 Sudoeste 0 -- -- 57
2020-03-29 14:00:00 17.4 8 Oeste 15 Sudoeste 0 -- -- 60
2020-03-29 13:00:00 15.8 7 Sudoeste 22 Sudoeste 0 -- -- 68
2020-03-29 12:00:00 15 5 Sudoeste 13 Sudoeste 0 -- -- 72
2020-03-29 11:00:00 13.4 3 Sudeste 8 Sur 0 -- -- 74
2020-03-29 10:00:00 9.8 0 Calma 3 Oeste 0 -- -- 94
2020-03-29 09:00:00 5 0 Calma 3 Noroeste 0 -- -- 98
2020-03-29 08:00:00 4.7 3 Este 5 Nordeste 0 -- -- 96
2020-03-29 07:00:00 6.2 2 Sudeste 6 Norte 0 -- -- 97
2020-03-29 06:00:00 6 3 Noroeste 6 Noroeste 0 -- -- 98
2020-03-29 05:00:00 5.9 0 Calma 5 Nordeste 0 -- -- 96
2020-03-29 03:00:00 5.6 0 Calma 4 Sudeste 0 -- -- 95
2020-03-29 01:00:00 6.1 0 Calma 3 Sudeste 0 -- -- 93
2020-03-29 00:00:00 6.9 3 Sudeste 5 Sudeste 0 -- -- 91
2020-03-28 23:00:00 7.8 0 Calma 5 Sudeste 0 -- -- 87
2020-03-28 22:00:00 9.2 0 Calma 8 Noroeste 0 -- -- 81
2020-03-28 21:00:00 10.6 5 Nordeste 8 Nordeste 0 -- -- 75
2020-03-28 20:00:00 12.7 6 Nordeste 10 Este 0 -- -- 70
2020-03-28 19:00:00 16.5 6 Este 19 Sudeste 0 -- -- 53
2020-03-28 18:00:00 16.9 10 Sudeste 19 Sudeste 0 -- -- 50
2020-03-28 17:00:00 17 8 Sur 19 Sudeste 0 -- -- 52
2020-03-28 16:00:00 16.4 8 Sudeste 24 Sur 0 -- -- 56
2020-03-28 15:00:00 16.7 10 Sudeste 22 Este 0 -- -- 64
2020-03-28 14:00:00 15 12 Sudeste 24 Sudeste 0 -- -- 60
2020-03-28 13:00:00 14.2 14 Sudeste 26 Este 0 -- -- 63
2020-03-28 12:00:00 13.3 15 Este 26 Este 0 -- -- 63
2020-03-28 11:00:00 11.8 12 Sudeste 26 Sudeste 0 -- -- 69
2020-03-28 10:00:00 10.5 14 Sudeste 24 Sudeste 0 -- -- 72
2020-03-28 09:00:00 8.1 8 Este 21 Este 0 -- -- 80
2020-03-28 08:00:00 5.7 9 Este 20 Este 0 -- -- 85
2020-03-28 07:00:00 5.5 12 Este 21 Este 0 -- -- 86
2020-03-28 06:00:00 1.8 3 Sudeste 7 Nordeste 0 -- -- 96
2020-03-28 05:00:00 2.5 0 Calma 6 Nordeste 0 -- -- 93
2020-03-28 04:00:00 3.2 2 Norte 6 Este 0 -- -- 92
2020-03-28 03:00:00 4.8 3 Sudeste 12 Este 0 -- -- 86
2020-03-28 02:00:00 7.4 6 Este 18 Este 0 -- -- 76
2020-03-28 01:00:00 7.9 9 Este 15 Este 0 -- -- 74
2020-03-28 00:00:00 8.5 8 Este 20 Este 0 -- -- 73
2020-03-27 23:00:00 9.2 11 Este 18 Este 0 -- -- 69
2020-03-27 22:00:00 9.7 12 Este 18 Este 0 -- -- 65
2020-03-27 21:00:00 9.8 9 Este 16 Este 0 -- -- 66
2020-03-27 20:00:00 11.4 8 Este 15 Este 0 -- -- 67
2020-03-27 19:00:00 13.2 9 Este 24 Este 0 -- -- 56
2020-03-27 18:00:00 14.3 13 Este 26 Este 0 -- -- 55
2020-03-27 17:00:00 15.4 7 Este 16 Sudeste 0 -- -- 55
2020-03-27 16:00:00 14.3 7 Sudeste 22 Este 0 -- -- 66
2020-03-27 15:00:00 15.1 12 Sur 25 Sudeste 0 -- -- 62
2020-03-27 14:00:00 14.4 14 Sudeste 26 Sudeste 0 -- -- 67
2020-03-27 13:00:00 14.5 13 Sudeste 25 Este 0 -- -- 62
2020-03-27 12:00:00 13.7 11 Este 25 Este 0 -- -- 60
2020-03-27 11:00:00 12.2 12 Nordeste 27 Nordeste 0 -- -- 64
2020-03-27 10:00:00 10.6 15 Nordeste 24 Nordeste 0 -- -- 65
2020-03-27 09:00:00 6 6 Norte 22 Nordeste 0 -- -- 100
2020-03-27 08:00:00 2.9 0 Calma 5 Oeste 0 -- -- 99
2020-03-27 07:00:00 3 3 Noroeste 4 Noroeste 0 -- -- 99
2020-03-27 06:00:00 3.1 0 Calma 4 Este 0 -- -- 98
2020-03-27 05:00:00 3.4 0 Calma 2 Este 0 -- -- 99
2020-03-27 04:00:00 3.5 0 Calma 3 Este 0 -- -- 98
2020-03-27 03:00:00 4.4 2 Este 4 Este 0 -- -- 97
2020-03-27 02:00:00 4.8 3 Sudeste 5 Sudeste 0 -- -- 97
2020-03-27 01:00:00 5.6 3 Sudeste 4 Sudeste 0 -- -- 95
2020-03-27 00:00:00 6.4 0 Calma 6 Sudoeste 0 -- -- 93
2020-03-26 23:00:00 7.8 0 Calma 8 Oeste 0 -- -- 90
2020-03-26 22:00:00 10.1 4 Noroeste 14 Noroeste 0 -- -- 80
2020-03-26 21:00:00 12 7 Noroeste 18 Noroeste 0 -- -- 73
2020-03-26 20:00:00 13.9 9 Noroeste 28 Noroeste 0 -- -- 68
2020-03-26 19:00:00 16.8 15 Noroeste 31 Oeste 0 -- -- 59
2020-03-26 18:00:00 18.6 15 Noroeste 34 Oeste 0 -- -- 54
2020-03-26 17:00:00 19.3 16 Oeste 32 Noroeste 0 -- -- 54
2020-03-26 16:00:00 19.5 19 Noroeste 33 Noroeste 0 -- -- 54
2020-03-26 15:00:00 19.9 14 Noroeste 29 Noroeste 0 -- -- 56
2020-03-26 14:00:00 19.8 9 Oeste 24 Noroeste 0 -- -- 51
2020-03-26 13:00:00 19.1 9 Norte 16 Noroeste 0 -- -- 45
2020-03-26 12:00:00 17.6 8 Oeste 15 Oeste 0 -- -- 56
2020-03-26 11:00:00 15.5 5 Noroeste 11 Noroeste 0 -- -- 70
2020-03-26 10:00:00 12.2 2 Oeste 6 Oeste 0 -- -- 85
2020-03-26 09:00:00 8.7 0 Calma 5 Oeste 0 -- -- 98
2020-03-26 08:00:00 5.5 0 Calma 4 Nordeste 0 -- -- 99
2020-03-26 07:00:00 5.3 0 Calma 5 Sudeste 0 -- -- 97
2020-03-26 06:00:00 5.9 0 Calma 4 Este 0 -- -- 97
2020-03-26 05:00:00 6.7 0 Calma 6 Sudeste 0 -- -- 96
2020-03-26 04:00:00 7.5 0 Calma 5 Este 0 -- -- 92
2020-03-26 03:00:00 9.3 3 Oeste 6 Oeste 0 -- -- 87
2020-03-26 02:00:00 11.3 4 Noroeste 6 Noroeste 0 -- -- 82
2020-03-26 01:00:00 11.9 4 Norte 10 Noroeste 0 -- -- 79
2020-03-26 00:00:00 12.2 3 Noroeste 11 Noroeste 0 -- -- 80
2020-03-25 23:00:00 13.5 4 Noroeste 8 Noroeste 0 -- -- 79
2020-03-25 22:00:00 14.9 5 Noroeste 17 Noroeste 0 -- -- 73
2020-03-25 21:00:00 15.1 4 Noroeste 13 Noroeste 0 -- -- 72
2020-03-25 20:00:00 17.2 4 Oeste 16 Oeste 0 -- -- 63
2020-03-25 19:00:00 18.6 7 Oeste 19 Noroeste 0 -- -- 60
2020-03-25 18:00:00 19.8 9 Oeste 21 Noroeste 0 -- -- 54
2020-03-25 17:00:00 20 11 Oeste 21 Oeste 0 -- -- 51
2020-03-25 16:00:00 19.9 6 Oeste 14 Oeste 0 -- -- 53
2020-03-25 15:00:00 19.3 5 Sudoeste 14 Oeste 0 -- -- 52
2020-03-25 14:00:00 18.2 6 Sudoeste 14 Oeste 0 -- -- 59
2020-03-25 13:00:00 17.1 5 Sudeste 11 Sur 0 -- -- 58
2020-03-25 12:00:00 15.9 5 Sudoeste 11 Sudoeste 0 -- -- 62
2020-03-25 11:00:00 13.8 5 Sur 11 Sur 0 -- -- 68
2020-03-25 10:00:00 9.8 0 Calma 5 Norte 0 -- -- 91
2020-03-25 09:00:00 7.9 2 Noroeste 5 Sur 0 -- -- 97
2020-03-25 08:00:00 6.2 0 Calma 4 Norte 0 -- -- 98
2020-03-25 07:00:00 5.1 0 Calma 4 Este 0 -- -- 96
2020-03-25 06:00:00 5.1 3 Este 5 Sur 0 -- -- 94
2020-03-25 05:00:00 6.2 4 Este 10 Noroeste 0 -- -- 92
2020-03-25 04:00:00 8.2 4 Noroeste 18 Este 0 -- -- 85
2020-03-25 03:00:00 9.7 8 Este 15 Sudeste 0 -- -- 81
2020-03-25 02:00:00 8.4 6 Este 11 Este 0 -- -- 89
2020-03-25 01:00:00 9.8 7 Este 10 Este 0 -- -- 82
2020-03-25 00:00:00 11.9 4 Sudeste 21 Este 0 -- -- 72
2020-03-24 23:00:00 13.4 12 Este 28 Este 0 -- -- 68
2020-03-24 22:00:00 14.4 13 Este 24 Este 0 -- -- 67
2020-03-24 21:00:00 15.1 10 Este 20 Este 0 -- -- 65
2020-03-24 20:00:00 15.4 8 Este 19 Este 0 -- -- 64
2020-03-24 19:00:00 16 12 Este 24 Sudeste 0 -- -- 62
2020-03-24 18:00:00 16.3 13 Este 31 Este 0 -- -- 62
2020-03-24 17:00:00 16.5 16 Este 30 Este 0 -- -- 60
2020-03-24 16:00:00 16.8 15 Este 34 Este 0 -- -- 61
2020-03-24 15:00:00 17.3 18 Este 40 Sudeste 0 -- -- 62
2020-03-24 14:00:00 16.4 18 Este 35 Este 0 -- -- 63
2020-03-24 13:00:00 16.5 19 Este 38 Este 0 -- -- 64
2020-03-24 12:00:00 16 18 Este 34 Este 0 -- -- 66
2020-03-24 11:00:00 16.1 19 Este 38 Este 0 -- -- 69
2020-03-24 10:00:00 14.8 21 Este 34 Este 0 -- -- 71
2020-03-24 09:00:00 13.2 16 Este 29 Este 0 -- -- 74
2020-03-24 08:00:00 11.3 14 Este 27 Este 0 -- -- 81
2020-03-24 07:00:00 11.3 16 Este 33 Este 0 -- -- 83
2020-03-24 06:00:00 11.3 19 Nordeste 38 Este 0 -- -- 83
2020-03-24 05:00:00 11.4 15 Nordeste 26 Este 0 -- -- 81
2020-03-24 04:00:00 11.4 13 Nordeste 22 Este 0 -- -- 80
2020-03-24 03:00:00 10.9 11 Nordeste 17 Este 0 -- -- 80
2020-03-24 02:00:00 10.2 7 Nordeste 15 Este 0 -- -- 81
2020-03-24 01:00:00 11.2 9 Este 21 Este 0 -- -- 77
2020-03-24 00:00:00 11.7 10 Este 21 Nordeste 0 -- -- 75
2020-03-23 23:00:00 12.6 13 Este 26 Este 0 -- -- 71
2020-03-23 22:00:00 12.3 13 Nordeste 21 Nordeste 0 -- -- 74
2020-03-23 21:00:00 12 7 Este 20 Sudeste 0 -- -- 77
2020-03-23 20:00:00 14.5 12 Nordeste 20 Nordeste 0 -- -- 68
2020-03-23 19:00:00 15.8 13 Este 24 Este 0 -- -- 58
2020-03-23 18:00:00 16.2 12 Sudeste 24 Sudeste 0 -- -- 61
2020-03-23 17:00:00 16.5 9 Este 22 Sudeste 0 -- -- 62
2020-03-23 16:00:00 16.3 10 Sudeste 25 Este 0 -- -- 67
2020-03-23 15:00:00 16.2 17 Este 26 Este 0 -- -- 65
2020-03-23 14:00:00 15.6 13 Este 24 Nordeste 0 -- -- 64
2020-03-23 13:00:00 16 10 Nordeste 21 Nordeste 0 -- -- 63
2020-03-23 12:00:00 15.5 14 Este 23 Nordeste 0 -- -- 67
2020-03-23 11:00:00 14.5 13 Sudeste 21 Este 0 -- -- 73
2020-03-23 10:00:00 13.3 12 Este 21 Este 0 -- -- 79
2020-03-23 09:00:00 11.9 10 Este 19 Este 0 -- -- 83
2020-03-23 08:00:00 9.7 8 Este 21 Nordeste 0 -- -- 91
2020-03-23 07:00:00 7.6 0 Calma 5 Noroeste 0 -- -- 99
2020-03-23 06:00:00 7.3 0 Calma 4 Sur 0 -- -- 99
2020-03-23 05:00:00 7 0 Calma 5 Este 0 -- -- 99
2020-03-23 04:00:00 6.3 0 Calma 5 Sudeste 0 -- -- 96
2020-03-23 03:00:00 6.9 3 Este 6 Oeste 0 -- -- 95
2020-03-23 02:00:00 8.7 0 Calma 10 Noroeste 0 -- -- 91
2020-03-23 01:00:00 9.8 0 Calma 6 Sur 0 -- -- 89
2020-03-23 00:00:00 11.6 3 Oeste 8 Norte 0 -- -- 83
2020-03-22 23:00:00 11.7 7 Nordeste 11 Nordeste 0 -- -- 80
2020-03-22 22:00:00 10.6 0 Calma 7 Noroeste 0 -- -- 88
2020-03-22 21:00:00 10.6 3 Nordeste 6 Nordeste 0 -- -- 85
2020-03-22 20:00:00 12.5 5 Nordeste 6 Nordeste 0 -- -- 76
2020-03-22 19:00:00 15.6 4 Este 12 Nordeste 0 -- -- 58
2020-03-22 18:00:00 15.7 9 Nordeste 15 Nordeste 0 -- -- 57
2020-03-22 17:00:00 15.5 9 Norte 19 Norte 0 -- -- 61
2020-03-22 16:00:00 16.3 6 Nordeste 18 Nordeste 0 -- -- 58
2020-03-22 15:00:00 15.7 11 Nordeste 22 Este 0 -- -- 62
2020-03-22 14:00:00 14.9 8 Este 18 Nordeste 0 -- -- 65
2020-03-22 13:00:00 13.8 6 Este 16 Nordeste 0 -- -- 70
2020-03-22 12:00:00 14.3 8 Este 21 Sudeste 0 -- -- 72
2020-03-22 11:00:00 12.8 9 Este 17 Este 0 -- -- 76
2020-03-22 10:00:00 11.8 8 Este 14 Sudeste 0 -- -- 76
2020-03-22 09:00:00 9.1 5 Nordeste 10 Nordeste 0 -- -- 92
2020-03-22 08:00:00 7.1 4 Este 9 Este 0 -- -- 95
2020-03-22 07:00:00 8.5 6 Nordeste 14 Nordeste 0 -- -- 93
2020-03-22 06:00:00 8.6 5 Nordeste 14 Norte 0 -- -- 95
2020-03-22 05:00:00 8.8 4 Nordeste 15 Nordeste 0 -- -- 93
2020-03-22 04:00:00 9 8 Nordeste 14 Nordeste 0 -- -- 93
2020-03-22 03:00:00 8.8 2 Nordeste 16 Nordeste 0 -- -- 94
2020-03-22 02:00:00 9.1 10 Nordeste 17 Este 0 -- -- 92
2020-03-22 01:00:00 9 9 Este 17 Este 0 -- -- 92
2020-03-22 00:00:00 9 7 Nordeste 15 Este 0 -- -- 92
2020-03-21 23:00:00 9.3 9 Este 18 Este 0 -- -- 92
2020-03-21 22:00:00 9.4 9 Nordeste 17 Nordeste 0 -- -- 92
2020-03-21 21:00:00 9.5 11 Este 23 Este 0 -- -- 92
2020-03-21 20:00:00 10.1 9 Este 22 Sudeste 0 -- -- 88
2020-03-21 19:00:00 11.4 12 Sudeste 22 Este 0 -- -- 79
2020-03-21 18:00:00 12.1 12 Sudeste 25 Sudeste 0 -- -- 74
2020-03-21 17:00:00 13.7 11 Sudeste 21 Este 0 -- -- 67
2020-03-21 16:00:00 12.5 5 Norte 33 Sur 1 -- -- 80
2020-03-21 15:00:00 12.4 6 Sur 22 Sur 0 -- -- 76
2020-03-21 14:00:00 13.4 11 Este 19 Sudeste 0 -- -- 73
2020-03-21 13:00:00 12.3 9 Este 15 Este 0 -- -- 78
2020-03-21 12:00:00 11.1 3 Sur 7 Sudoeste 0 -- -- 83
2020-03-21 11:00:00 10.4 2 Sudoeste 9 Sudoeste 0 -- -- 93
2020-03-21 10:00:00 9.1 5 Sudoeste 12 Sur 0 -- -- 93
2020-03-21 09:00:00 8.4 4 Sudoeste 21 Sudoeste 0 -- -- 98
2020-03-21 08:00:00 8.6 7 Oeste 14 Oeste 0 -- -- 99
2020-03-21 07:00:00 8.7 6 Sudoeste 14 Oeste 0 -- -- 99
2020-03-21 06:00:00 9.1 6 Oeste 13 Oeste 0 -- -- 99
2020-03-21 05:00:00 9 6 Oeste 13 Sudoeste 0 -- -- 99
2020-03-21 04:00:00 8.9 6 Sudoeste 9 Oeste 0 -- -- 99
2020-03-21 03:00:00 9.2 5 Oeste 17 Sudoeste 0.4 -- -- 99
2020-03-21 02:00:00 9.7 4 Sudeste 11 Sudeste 0 -- -- 99
2020-03-21 01:00:00 9.8 6 Sudeste 9 Sudeste 0.2 -- -- 99
2020-03-21 00:00:00 9.9 3 Nordeste 10 Norte 3.4 -- -- 98
2020-03-20 23:00:00 10.5 6 Nordeste 10 Noroeste 3.8 -- -- 98
2020-03-20 22:00:00 10.9 2 Noroeste 9 Noroeste 0 -- -- 98
2020-03-20 21:00:00 11.1 4 Noroeste 15 Oeste 1.6 -- -- 98
2020-03-20 20:00:00 11.4 3 Sudeste 7 Este 0 -- -- 97
2020-03-20 19:00:00 11.6 4 Sudeste 12 Oeste 0.6 -- -- 97
2020-03-20 18:00:00 11.9 5 Sur 23 Sur 0.8 -- -- 96
2020-03-20 17:00:00 12.5 14 Sur 22 Sur 1 -- -- 97
2020-03-20 16:00:00 12.8 7 Sudeste 16 Sudeste 0 -- -- 97
2020-03-20 15:00:00 12.9 9 Sudeste 19 Sur 0 -- -- 97
2020-03-20 14:00:00 13.3 11 Sur 16 Sudeste 0 -- -- 95
2020-03-20 13:00:00 13.2 9 Sur 13 Sur 0 -- -- 97
2020-03-20 12:00:00 12.5 8 Sur 17 Sur 0 -- -- 97
2020-03-20 11:00:00 12.4 5 Sur 14 Sur 0 -- -- 98
2020-03-20 10:00:00 11.9 7 Sudeste 12 Sudeste 0 -- -- 96
2020-03-20 09:00:00 12 0 Calma 15 Sudeste 0 -- -- 95
2020-03-20 08:00:00 11.8 6 Sudeste 10 Este 1.6 -- -- 96
2020-03-20 07:00:00 11.5 4 Nordeste 9 Oeste 2.2 -- -- 95
2020-03-20 06:00:00 13.1 6 Sudeste 14 Sudeste 0 -- -- 82
2020-03-20 05:00:00 12.9 7 Sudeste 15 Sudeste 0.2 -- -- 84
2020-03-20 04:00:00 11.8 4 Este 8 Sudeste 0 -- -- 90
2020-03-20 03:00:00 11.1 6 Norte 12 Noroeste 0 -- -- 88
2020-03-20 02:00:00 11.2 3 Este 6 Noroeste 0 -- -- 86
2020-03-20 01:00:00 11.8 0 Calma 9 Este 0 -- -- 80
2020-03-20 00:00:00 12.1 0 Calma 9 Noroeste 0 -- -- 79
2020-03-19 23:00:00 13.3 5 Noroeste 14 Este 0 -- -- 73
2020-03-19 22:00:00 14.7 9 Este 20 Este 0 -- -- 68
2020-03-19 21:00:00 15.2 11 Nordeste 26 Este 0 -- -- 67
2020-03-19 20:00:00 16.2 14 Nordeste 25 Nordeste 0 -- -- 64
2020-03-19 19:00:00 18.3 9 Nordeste 20 Nordeste 0 -- -- 57
2020-03-19 18:00:00 20 12 Este 21 Sudeste 0 -- -- 51
2020-03-19 17:00:00 20.9 9 Este 20 Nordeste 0 -- -- 50
2020-03-19 16:00:00 20.7 12 Nordeste 24 Nordeste 0 -- -- 53
2020-03-19 15:00:00 20.3 13 Este 22 Sur 0 -- -- 52
2020-03-19 14:00:00 19.5 12 Sudeste 22 Este 0 -- -- 51
2020-03-19 13:00:00 18.5 9 Este 16 Nordeste 0 -- -- 52
2020-03-19 12:00:00 17.3 10 Sudeste 21 Sudeste 0 -- -- 54
2020-03-19 11:00:00 15.8 10 Este 19 Sudeste 0 -- -- 54
2020-03-19 10:00:00 13.9 8 Nordeste 14 Este 0 -- -- 57
2020-03-19 09:00:00 10.5 5 Noroeste 11 Noroeste 0 -- -- 84
2020-03-19 08:00:00 8.6 0 Calma 4 Sudeste 0 -- -- 91
2020-03-19 07:00:00 8.7 2 Sur 10 Noroeste 0 -- -- 88
2020-03-19 06:00:00 9.4 0 Calma 5 Nordeste 0 -- -- 83
2020-03-19 05:00:00 10.1 2 Nordeste 9 Este 0 -- -- 79
2020-03-19 04:00:00 11.1 2 Noroeste 9 Este 0 -- -- 76
2020-03-19 03:00:00 12.7 3 Nordeste 15 Este 0 -- -- 69
2020-03-19 02:00:00 14.3 4 Este 18 Nordeste 0 -- -- 64
2020-03-19 01:00:00 14.6 7 Este 24 Este 0 -- -- 64
2020-03-19 00:00:00 14.9 12 Este 24 Este 0 -- -- 67
2020-03-18 23:00:00 15.3 14 Este 28 Este 0 -- -- 67
2020-03-18 22:00:00 15.7 15 Este 26 Este 0 -- -- 66
2020-03-18 21:00:00 16 13 Este 24 Este 0 -- -- 66
2020-03-18 20:00:00 16.6 18 Este 36 Este 0 -- -- 64
2020-03-18 19:00:00 17.7 19 Nordeste 33 Nordeste 0 -- -- 60
2020-03-18 18:00:00 20.6 13 Este 30 Este 0 -- -- 54
2020-03-18 17:00:00 21.4 13 Este 23 Sudeste 0 -- -- 49
2020-03-18 16:00:00 21.2 10 Este 28 Sudeste 0 -- -- 53
2020-03-18 15:00:00 20.5 16 Este 28 Sudeste 0 -- -- 53
2020-03-18 14:00:00 19.9 14 Este 26 Nordeste 0 -- -- 58
2020-03-18 13:00:00 18.7 16 Este 30 Este 0 -- -- 60
2020-03-18 12:00:00 17.6 15 Este 30 Este 0 -- -- 62
2020-03-18 11:00:00 16.6 15 Este 29 Sudeste 0 -- -- 64
2020-03-18 10:00:00 15.2 9 Este 22 Este 0 -- -- 68
2020-03-18 09:00:00 13.1 10 Este 28 Este 0 -- -- 72
2020-03-18 08:00:00 12.8 18 Este 30 Este 0 -- -- 75
2020-03-18 07:00:00 12.7 19 Este 32 Este 0 -- -- 78
2020-03-18 06:00:00 13.5 21 Este 37 Este 0 -- -- 71
2020-03-18 05:00:00 13.5 18 Este 33 Este 0 -- -- 77
2020-03-18 04:00:00 13.2 12 Este 21 Este 0 -- -- 79
2020-03-18 03:00:00 13.2 8 Este 22 Este 0 -- -- 78
2020-03-18 02:00:00 13.8 11 Este 36 Este 0 -- -- 75
2020-03-18 01:00:00 14.2 22 Este 35 Este 0 -- -- 72
2020-03-18 00:00:00 14 16 Nordeste 31 Nordeste 0 -- -- 67
2020-03-17 23:00:00 11.7 4 Nordeste 19 Nordeste 0 -- -- 67
2020-03-17 22:00:00 14.2 11 Nordeste 19 Nordeste 0 -- -- 53
2020-03-17 21:00:00 12.9 10 Nordeste 16 Nordeste 0 -- -- 56
2020-03-17 20:00:00 13.3 6 Nordeste 26 Este 0 -- -- 56
2020-03-17 19:00:00 16.6 11 Este 32 Este 0 -- -- 44
2020-03-17 18:00:00 17.3 13 Este 33 Sudeste 0 -- -- 42
2020-03-17 17:00:00 17.2 17 Este 33 Este 0 -- -- 42
2020-03-17 16:00:00 16.9 15 Este 34 Sudeste 0 -- -- 47
2020-03-17 15:00:00 16.7 17 Este 32 Sudeste 0 -- -- 46
2020-03-17 14:00:00 15.7 21 Sudeste 40 Sudeste 0 -- -- 52
2020-03-17 13:00:00 14.8 22 Sudeste 35 Sur 0 -- -- 52
2020-03-17 12:00:00 14.6 18 Este 36 Este 0 -- -- 55
2020-03-17 11:00:00 13 14 Este 31 Este 0 -- -- 59
2020-03-17 10:00:00 9.8 15 Este 28 Nordeste 0 -- -- 72
2020-03-17 09:00:00 7.7 18 Nordeste 31 Este 0 -- -- 80
2020-03-17 08:00:00 6.2 13 Nordeste 31 Nordeste 0 -- -- 85
2020-03-17 07:00:00 5.7 13 Nordeste 26 Este 0 -- -- 86
2020-03-17 06:00:00 5.8 14 Este 26 Nordeste 0 -- -- 85
2020-03-17 05:00:00 5.8 14 Nordeste 33 Nordeste 0 -- -- 85
2020-03-17 04:00:00 5.9 19 Nordeste 30 Nordeste 0 -- -- 86
2020-03-17 03:00:00 6 19 Nordeste 33 Nordeste 0 -- -- 87
2020-03-17 02:00:00 6.4 13 Nordeste 34 Nordeste 0 -- -- 86
2020-03-17 01:00:00 7.1 20 Nordeste 33 Nordeste 0 -- -- 88
2020-03-17 00:00:00 7.7 19 Nordeste 32 Nordeste 0 -- -- 83
2020-03-16 23:00:00 8 20 Nordeste 41 Nordeste 0 -- -- 80
2020-03-16 22:00:00 8 15 Norte 39 Nordeste 0 -- -- 86
2020-03-16 21:00:00 7.8 15 Nordeste 29 Norte 1.4 -- -- 89
2020-03-16 20:00:00 8.2 15 Norte 29 Nordeste 2.4 -- -- 88
2020-03-16 19:00:00 9 9 Norte 25 Norte 0 -- -- 81
2020-03-16 18:00:00 8.8 15 Norte 36 Norte 0.6 -- -- 81
2020-03-16 17:00:00 11.2 17 Norte 37 Norte 0 -- -- 62
2020-03-16 16:00:00 11.2 14 Norte 38 Norte 0 -- -- 63
2020-03-16 15:00:00 9.7 14 Nordeste 49 Nordeste 0 -- -- 70
2020-03-16 14:00:00 12.7 21 Norte 46 Norte 0 -- -- 49
2020-03-16 13:00:00 12.2 24 Norte 48 Nordeste 0 -- -- 51
2020-03-16 12:00:00 12.5 22 Norte 46 Norte 0 -- -- 50
2020-03-16 11:00:00 10.7 21 Norte 45 Noroeste 0 -- -- 56
2020-03-16 10:00:00 9.2 21 Norte 45 Norte 0 -- -- 58
2020-03-16 09:00:00 7.2 19 Norte 35 Norte 0 -- -- 68
2020-03-16 08:00:00 5.2 12 Norte 24 Noroeste 0 -- -- 76
2020-03-16 07:00:00 5.2 11 Noroeste 31 Noroeste 0 -- -- 78
2020-03-16 06:00:00 5.3 10 Noroeste 25 Noroeste 0 -- -- 78
2020-03-16 05:00:00 2.2 3 Noroeste 9 Noroeste 0 -- -- 91
2020-03-16 04:00:00 3.6 6 Oeste 10 Oeste 0 -- -- 84
2020-03-16 03:00:00 5.3 7 Noroeste 19 Norte 0 -- -- 75
2020-03-16 02:00:00 6.6 8 Norte 26 Norte 0 -- -- 70
2020-03-16 01:00:00 7.1 9 Norte 25 Norte 0 -- -- 68
2020-03-16 00:00:00 7.6 10 Norte 23 Norte 0 -- -- 69
2020-03-15 23:00:00 8.3 11 Noroeste 21 Norte 0 -- -- 73
2020-03-15 22:00:00 9.5 12 Norte 27 Noroeste 0 -- -- 75
2020-03-15 21:00:00 10.7 12 Noroeste 32 Noroeste 0 -- -- 77
2020-03-15 20:00:00 13.4 15 Noroeste 35 Noroeste 0 -- -- 66
2020-03-15 19:00:00 15.5 16 Noroeste 33 Oeste 0 -- -- 56
2020-03-15 18:00:00 17.4 13 Noroeste 32 Noroeste 0 -- -- 60
2020-03-15 17:00:00 17.6 14 Noroeste 33 Noroeste 0 -- -- 64
2020-03-15 16:00:00 17.3 19 Noroeste 39 Noroeste 0 -- -- 68
2020-03-15 15:00:00 18.3 17 Oeste 33 Oeste 0 -- -- 72
2020-03-15 14:00:00 17.9 13 Oeste 26 Oeste 0 -- -- 73
2020-03-15 13:00:00 17.6 12 Sudoeste 22 Sudoeste 0 -- -- 78
2020-03-15 12:00:00 17 12 Sudoeste 20 Sudoeste 0 -- -- 78
2020-03-15 11:00:00 15.6 7 Sudoeste 14 Oeste 0 -- -- 85
2020-03-15 10:00:00 13.6 5 Sudoeste 9 Oeste 0 -- -- 95
2020-03-15 09:00:00 10.2 0 Calma 4 Sur 0 -- -- 100
2020-03-15 08:00:00 7.4 0 Calma 3 Sudeste 0 -- -- 100
2020-03-15 07:00:00 7.7 2 Norte 5 Noroeste 0 -- -- 100
2020-03-15 06:00:00 7.7 2 Sudeste 5 Nordeste 0 -- -- 99
2020-03-15 05:00:00 7.9 3 Sudeste 5 Sur 0 -- -- 99
2020-03-15 04:00:00 8.9 0 Calma 5 Oeste 0 -- -- 99
2020-03-15 03:00:00 9.3 3 Norte 6 Sudeste 0 -- -- 98
2020-03-15 02:00:00 10.2 3 Sudeste 6 Oeste 0 -- -- 99
2020-03-15 01:00:00 10.6 4 Sudeste 5 Sudeste 0 -- -- 98
2020-03-15 00:00:00 11.3 0 Calma 3 Sudeste 0 -- -- 96
2020-03-14 23:00:00 12.1 0 Calma 6 Norte 0 -- -- 94
2020-03-14 22:00:00 13.3 0 Calma 2 Nordeste 0 -- -- 92
2020-03-14 21:00:00 14.5 0 Calma 5 Nordeste 0 -- -- 89
2020-03-14 20:00:00 16.7 2 Nordeste 6 Sudoeste 0 -- -- 82
2020-03-14 19:00:00 21.3 5 Sudoeste 13 Sudoeste 0 -- -- 65
2020-03-14 18:00:00 22.1 7 Sur 17 Sudoeste 0 -- -- 63
2020-03-14 17:00:00 23 5 Nordeste 10 Nordeste 0 -- -- 55
2020-03-14 16:00:00 22.2 4 Oeste 12 Sur 0 -- -- 64
2020-03-14 15:00:00 21.2 6 Sur 18 Sudoeste 0 -- -- 70
2020-03-14 14:00:00 19.4 6 Sudoeste 12 Sudoeste 0 -- -- 70
2020-03-14 13:00:00 17.9 8 Sur 14 Sur 0 -- -- 77
2020-03-14 12:00:00 17.2 8 Sur 14 Sur 0 -- -- 76
2020-03-14 11:00:00 17.2 7 Sur 12 Sur 0 -- -- 70
2020-03-14 10:00:00 14.8 3 Sur 5 Sudoeste 0 -- -- 76
2020-03-14 09:00:00 10.4 0 Calma 6 Sudeste 0 -- -- 100
2020-03-14 08:00:00 7 0 Calma 5 Noroeste 0 -- -- 100
2020-03-14 07:00:00 6.7 0 Calma 5 Sudeste 0 -- -- 100
2020-03-14 06:00:00 6.4 3 Sur 4 Sur 0 -- -- 100
2020-03-14 05:00:00 7.3 0 Calma 4 Norte 0 -- -- 99
2020-03-14 04:00:00 8.3 4 Nordeste 5 Nordeste 0 -- -- 100
2020-03-14 03:00:00 8.5 0 Calma 5 Sudeste 0 -- -- 99
2020-03-14 02:00:00 8.9 3 Sur 5 Noroeste 0 -- -- 99
2020-03-14 01:00:00 10 0 Calma 4 Sudeste 0 -- -- 99
2020-03-14 00:00:00 10.1 0 Calma 5 Norte 0 -- -- 97
2020-03-13 23:00:00 10.9 3 Este 6 Nordeste 0 -- -- 97
2020-03-13 22:00:00 11.6 0 Calma 3 Sudeste 0 -- -- 95
2020-03-13 21:00:00 12.7 0 Calma 3 Sudeste 0 -- -- 93
2020-03-13 20:00:00 15.1 0 Calma 8 Oeste 0 -- -- 87
2020-03-13 19:00:00 17.6 6 Oeste 14 Oeste 0 -- -- 78
2020-03-13 18:00:00 18.3 8 Oeste 15 Sudoeste 0 -- -- 78
2020-03-13 17:00:00 17.4 9 Oeste 19 Oeste 0 -- -- 78
2020-03-13 16:00:00 16.7 10 Sudoeste 19 Oeste 0 -- -- 81
2020-03-13 15:00:00 15.4 10 Sudoeste 21 Oeste 0 -- -- 85
2020-03-13 14:00:00 15.3 8 Oeste 14 Sudoeste 0 -- -- 84
2020-03-13 13:00:00 14 5 Sudoeste 12 Sudoeste 0 -- -- 87
2020-03-13 12:00:00 12.1 6 Sudoeste 10 Sudoeste 0 -- -- 98
2020-03-13 11:00:00 10.6 2 Sudoeste 7 Sur 0 -- -- 100
2020-03-13 10:00:00 10 2 Sudoeste 6 Sur 0 -- -- 100
2020-03-13 09:00:00 9.7 2 Oeste 9 Oeste 0 -- -- 100
2020-03-13 08:00:00 9.7 3 Oeste 10 Sudoeste 0 -- -- 100
2020-03-13 07:00:00 9.6 6 Sudoeste 13 Sudoeste 0 -- -- 100
2020-03-13 06:00:00 9.9 4 Sudoeste 10 Oeste 0 -- -- 100
2020-03-13 05:00:00 10.1 0 Calma 5 Oeste 0 -- -- 100
2020-03-13 04:00:00 8.3 2 Sudeste 4 Sudeste 0 -- -- 99
2020-03-13 03:00:00 8.7 0 Calma 3 Este 0 -- -- 98
2020-03-13 02:00:00 9.5 0 Calma 4 Sudeste 0 -- -- 97
2020-03-13 01:00:00 10.1 2 Sudeste 3 Sudeste 0 -- -- 96
2020-03-13 00:00:00 11 0 Calma 5 Norte 0 -- -- 93
2020-03-12 23:00:00 12.1 0 Calma 5 Este 0 -- -- 91
2020-03-12 22:00:00 13.2 2 Este 4 Este 0 -- -- 88
2020-03-12 21:00:00 13.9 0 Calma 4 Nordeste 0 -- -- 84
2020-03-12 20:00:00 15.8 0 Calma 8 Oeste 0 -- -- 76
2020-03-12 19:00:00 20.8 4 Oeste 12 Oeste 0 -- -- 58
2020-03-12 18:00:00 21.8 9 Sudoeste 16 Sudoeste 0 -- -- 52
2020-03-12 17:00:00 22.7 10 Sudoeste 20 Oeste 0 -- -- 51
2020-03-12 16:00:00 23.2 10 Oeste 18 Oeste 0 -- -- 56
2020-03-12 15:00:00 23.4 7 Sur 17 Sudoeste 0 -- -- 54
2020-03-12 14:00:00 22.6 5 Oeste 10 Oeste 0 -- -- 60
2020-03-12 13:00:00 21.3 3 Sudoeste 8 Oeste 0 -- -- 66
2020-03-12 12:00:00 18.7 2 Oeste 5 Oeste 0 -- -- 75
2020-03-12 11:00:00 15.1 0 Calma 9 Noroeste 0 -- -- 87
2020-03-12 10:00:00 13.3 4 Noroeste 8 Noroeste 0 -- -- 92
2020-03-12 09:00:00 11.3 2 Noroeste 5 Oeste 0 -- -- 100
2020-03-12 08:00:00 8.2 0 Calma 4 Sudeste 0 -- -- 100
2020-03-12 07:00:00 8.1 0 Calma 7 Norte 0 -- -- 99
2020-03-12 06:00:00 9.6 2 Sudeste 6 Sudeste 0 -- -- 99
2020-03-12 05:00:00 9.5 0 Calma 6 Noroeste 0 -- -- 98
2020-03-12 04:00:00 10.3 2 Este 4 Sudeste 0 -- -- 98
2020-03-12 03:00:00 10.8 0 Calma 0 Calma 0 -- -- 96
2020-03-12 02:00:00 11.7 0 Calma 3 Norte 0 -- -- 95
2020-03-12 01:00:00 12.7 0 Calma 4 Este 0 -- -- 93
2020-03-12 00:00:00 13.5 0 Calma 5 Sudeste 0 -- -- 92
2020-03-11 23:00:00 14.4 3 Sudeste 6 Sudeste 0 -- -- 90
2020-03-11 22:00:00 15.6 0 Calma 6 Sudeste 0 -- -- 86
2020-03-11 21:00:00 17.5 2 Sur 8 Noroeste 0 -- -- 79
2020-03-11 20:00:00 19.7 4 Este 13 Nordeste 0 -- -- 69
2020-03-11 19:00:00 21.2 5 Nordeste 12 Nordeste 0 -- -- 68
2020-03-11 18:00:00 23 5 Nordeste 16 Norte 0 -- -- 60
2020-03-11 17:00:00 24 5 Nordeste 11 Norte 0 -- -- 56
2020-03-11 16:00:00 24.6 7 Nordeste 13 Nordeste 0 -- -- 52
2020-03-11 15:00:00 25.2 4 Nordeste 15 Sudeste 0 -- -- 49
2020-03-11 14:00:00 24.2 9 Este 14 Sudeste 0 -- -- 51
2020-03-11 13:00:00 22.6 4 Este 9 Nordeste 0 -- -- 54
2020-03-11 12:00:00 21.6 3 Sudeste 11 Sudeste 0 -- -- 57
2020-03-11 11:00:00 17.3 4 Oeste 7 Noroeste 0 -- -- 74
2020-03-11 10:00:00 13.8 0 Calma 5 Noroeste 0 -- -- 84
2020-03-11 09:00:00 9.1 2 Noroeste 4 Noroeste 0 -- -- 99
2020-03-11 08:00:00 6.8 2 Sudeste 3 Este 0 -- -- 99
2020-03-11 07:00:00 6.5 3 Sudeste 9 Noroeste 0 -- -- 97
2020-03-11 06:00:00 7.4 0 Calma 5 Sudeste 0 -- -- 97
2020-03-11 05:00:00 7.7 3 Sudeste 7 Sur 0 -- -- 97
2020-03-11 04:00:00 8.2 0 Calma 2 Sudeste 0 -- -- 96
2020-03-11 03:00:00 8.9 2 Norte 6 Sudeste 0 -- -- 95
2020-03-11 02:00:00 9.5 0 Calma 5 Sudeste 0 -- -- 93
2020-03-11 01:00:00 9.9 3 Sudeste 6 Sudeste 0 -- -- 92
2020-03-11 00:00:00 10.8 0 Calma 6 Sudeste 0 -- -- 89
2020-03-10 23:00:00 11.3 0 Calma 4 Sudeste 0 -- -- 86
2020-03-10 22:00:00 12.5 4 Sudeste 5 Sudeste 0 -- -- 82
2020-03-10 21:00:00 14.3 4 Este 6 Este 0 -- -- 75
2020-03-10 20:00:00 16.6 3 Este 5 Nordeste 0 -- -- 69
2020-03-10 19:00:00 23.5 4 Oeste 7 Noroeste 0 -- -- 42
2020-03-10 18:00:00 23.6 3 Oeste 10 Sudoeste 0 -- -- 43
2020-03-10 17:00:00 24.1 4 Sur 10 Sudoeste 0 -- -- 44
2020-03-10 16:00:00 24 4 Oeste 10 Sur 0 -- -- 41
2020-03-10 15:00:00 23.4 5 Sur 9 Sudoeste 0 -- -- 39
2020-03-10 14:00:00 21.6 5 Sudeste 12 Este 0 -- -- 43
2020-03-10 13:00:00 19.9 5 Sur 9 Sur 0 -- -- 48
2020-03-10 12:00:00 18.6 5 Sur 10 Sudoeste 0 -- -- 51
2020-03-10 11:00:00 16.6 2 Sudeste 9 Noroeste 0 -- -- 58
2020-03-10 10:00:00 13 0 Calma 6 Noroeste 0 -- -- 73
2020-03-10 09:00:00 8.4 2 Norte 4 Noroeste 0 -- -- 91
2020-03-10 08:00:00 5.8 0 Calma 7 Nordeste 0 -- -- 95
2020-03-10 07:00:00 6.1 2 Nordeste 6 Nordeste 0 -- -- 93
2020-03-10 06:00:00 6.8 0 Calma 6 Sur 0 -- -- 93
2020-03-10 05:00:00 7.4 3 Nordeste 7 Nordeste 0 -- -- 90
2020-03-10 04:00:00 7.9 3 Este 8 Norte 0 -- -- 88
2020-03-10 03:00:00 10.3 4 Noroeste 12 Oeste 0 -- -- 79
2020-03-10 02:00:00 12.4 6 Norte 17 Norte 0 -- -- 69
2020-03-10 01:00:00 12.2 9 Norte 16 Norte 0 -- -- 72
2020-03-10 00:00:00 10.3 5 Norte 19 Norte 0 -- -- 80
2020-03-09 23:00:00 12.6 11 Norte 15 Norte 0 -- -- 71
2020-03-09 22:00:00 11.5 3 Noroeste 11 Norte 0 -- -- 73
2020-03-09 21:00:00 11.7 3 Este 6 Sur 0 -- -- 70
2020-03-09 20:00:00 15.3 0 Calma 13 Noroeste 0 -- -- 56
2020-03-09 19:00:00 19 9 Norte 22 Norte 0 -- -- 41
2020-03-09 18:00:00 20.1 13 Norte 28 Nordeste 0 -- -- 39
2020-03-09 17:00:00 20.2 13 Norte 26 Norte 0 -- -- 39
2020-03-09 16:00:00 20 15 Norte 30 Noroeste 0 -- -- 39
2020-03-09 15:00:00 19.7 13 Norte 24 Norte 0 -- -- 42
2020-03-09 14:00:00 18.7 13 Norte 27 Norte 0 -- -- 43
2020-03-09 13:00:00 17.6 12 Norte 23 Norte 0 -- -- 47
2020-03-09 12:00:00 16.2 13 Norte 24 Norte 0 -- -- 47
2020-03-09 11:00:00 13.2 5 Noroeste 12 Oeste 0 -- -- 71
2020-03-09 10:00:00 9.8 3 Noroeste 6 Noroeste 0 -- -- 87
2020-03-09 09:00:00 6 0 Calma 4 Sudeste 0 -- -- 100
2020-03-09 08:00:00 3.9 0 Calma 5 Noroeste 0 -- -- 98
2020-03-09 07:00:00 4.7 0 Calma 4 Oeste 0 -- -- 98
2020-03-09 06:00:00 5.7 2 Norte 4 Noroeste 0 -- -- 98
2020-03-09 05:00:00 6.9 2 Sur 10 Norte 0 -- -- 93
2020-03-09 04:00:00 7.5 3 Norte 10 Norte 0 -- -- 95
2020-03-09 03:00:00 9.4 6 Norte 13 Norte 0 -- -- 90
2020-03-09 02:00:00 9 6 Noroeste 10 Noroeste 0 -- -- 91
2020-03-09 01:00:00 8.7 3 Noroeste 10 Noroeste 0 -- -- 92
2020-03-09 00:00:00 9.5 3 Oeste 16 Noroeste 0 -- -- 91
2020-03-08 23:00:00 9.4 4 Noroeste 14 Norte 0 -- -- 95
2020-03-08 22:00:00 9 0 Calma 6 Este 0 -- -- 90
2020-03-08 21:00:00 11.1 0 Calma 13 Norte 0 -- -- 81
2020-03-08 20:00:00 13.1 5 Norte 10 Norte 0 -- -- 71
2020-03-08 19:00:00 16.3 6 Norte 18 Norte 0 -- -- 56
2020-03-08 18:00:00 16.7 13 Norte 20 Norte 0 -- -- 51
2020-03-08 17:00:00 16.1 4 Norte 26 Norte 0 -- -- 54
2020-03-08 16:00:00 16.9 6 Oeste 14 Oeste 0 -- -- 69
2020-03-08 15:00:00 15.8 6 Oeste 12 Sudoeste 0 -- -- 69
2020-03-08 14:00:00 15.7 5 Noroeste 11 Oeste 0 -- -- 62
2020-03-08 13:00:00 14.7 7 Oeste 17 Noroeste 0 -- -- 64
2020-03-08 12:00:00 13.3 8 Oeste 16 Sudoeste 0 -- -- 71
2020-03-08 11:00:00 12 8 Sudoeste 13 Sudoeste 0 -- -- 76
2020-03-08 10:00:00 8 0 Calma 5 Sur 0 -- -- 94
2020-03-08 09:00:00 3.4 2 Oeste 6 Sudeste 0 -- -- 100
2020-03-08 08:00:00 0.8 2 Noroeste 6 Norte 0 -- -- 99
2020-03-08 07:00:00 1.2 3 Este 6 Sur 0 -- -- 99
2020-03-08 06:00:00 1 3 Sudeste 10 Noroeste 0 -- -- 99
2020-03-08 05:00:00 2.1 3 Este 9 Norte 0 -- -- 99
2020-03-08 04:00:00 2.6 0 Calma 6 Noroeste 0 -- -- 98
2020-03-08 03:00:00 3.2 0 Calma 5 Sudeste 0 -- -- 98
2020-03-08 02:00:00 3.5 3 Sudeste 4 Sur 0 -- -- 97
2020-03-08 01:00:00 4.7 0 Calma 3 Sudeste 0 -- -- 96
2020-03-08 00:00:00 5.6 0 Calma 5 Este 0 -- -- 93